createdAt,value
2022-08-27T00:01:56.875Z,54.40
2022-08-27T00:04:23.750Z,54.50
2022-08-27T00:06:50.509Z,54.20
2022-08-27T00:09:20.403Z,54.20
2022-08-27T00:11:53.723Z,54.30
2022-08-27T00:14:20.459Z,54.60
2022-08-27T00:16:47.229Z,54.00
2022-08-27T00:19:14.009Z,54.10
2022-08-27T00:21:40.721Z,54.70
2022-08-27T00:24:07.545Z,53.90
2022-08-27T00:26:39.096Z,53.50
2022-08-27T00:29:08.418Z,54.50
2022-08-27T00:31:35.288Z,54.40
2022-08-27T00:34:02.339Z,55.20
2022-08-27T00:36:29.264Z,55.70
2022-08-27T00:38:56.035Z,55.90
2022-08-27T00:41:23.257Z,56.20
2022-08-27T00:43:55.527Z,56.60
2022-08-27T00:46:26.296Z,56.10
2022-08-27T00:48:56.903Z,56.80
2022-08-27T00:51:24.567Z,57.10
2022-08-27T00:53:52.103Z,56.90
2022-08-27T00:56:22.852Z,56.80
2022-08-27T00:58:54.034Z,56.40
2022-08-27T01:01:24.073Z,56.50
2022-08-27T01:03:54.882Z,56.80
2022-08-27T01:06:23.113Z,56.60
2022-08-27T01:08:52.439Z,56.70
2022-08-27T01:11:19.959Z,56.50
2022-08-27T01:13:59.842Z,56.30
2022-08-27T01:16:34.475Z,56.40
2022-08-27T01:19:01.626Z,56.70
2022-08-27T01:21:32.753Z,56.80
2022-08-27T01:24:04.414Z,56.60
2022-08-27T01:26:32.859Z,55.80
2022-08-27T01:28:59.695Z,55.80
2022-08-27T01:31:26.418Z,56.40
2022-08-27T01:33:56.240Z,56.40
2022-08-27T01:36:23.061Z,56.30
2022-08-27T01:38:49.949Z,56.90
2022-08-27T01:41:17.300Z,57.10
2022-08-27T01:43:46.027Z,57.30
2022-08-27T01:46:14.285Z,57.20
2022-08-27T01:48:42.291Z,57.20
2022-08-27T01:51:09.597Z,56.80
2022-08-27T01:53:36.316Z,57.10
2022-08-27T01:56:03.859Z,57.20
2022-08-27T01:58:32.384Z,57.60
2022-08-27T02:01:03.356Z,57.40
2022-08-27T02:03:30.340Z,57.90
2022-08-27T02:05:57.260Z,57.50
2022-08-27T02:08:24.109Z,58.00
2022-08-27T02:10:51.428Z,58.20
2022-08-27T02:13:18.844Z,57.60
2022-08-27T02:15:45.934Z,58.00
2022-08-27T02:18:14.761Z,58.20
2022-08-27T02:20:42.393Z,58.00
2022-08-27T02:23:09.522Z,57.80
2022-08-27T02:25:36.563Z,57.70
2022-08-27T02:28:05.191Z,58.70
2022-08-27T02:30:33.233Z,57.50
2022-08-27T02:33:00.106Z,57.80
2022-08-27T02:35:29.442Z,58.30
2022-08-27T02:37:56.494Z,58.20
2022-08-27T02:40:24.208Z,58.20
2022-08-27T02:42:51.671Z,58.60
2022-08-27T02:45:19.136Z,58.00
2022-08-27T02:47:46.162Z,59.20
2022-08-27T02:50:13.255Z,59.20
2022-08-27T02:52:41.911Z,59.90
2022-08-27T02:55:09.263Z,59.10
2022-08-27T02:57:37.167Z,59.50
2022-08-27T03:00:06.833Z,58.70
2022-08-27T03:02:33.645Z,58.90
2022-08-27T03:05:00.439Z,59.80
2022-08-27T03:07:27.202Z,59.80
2022-08-27T03:09:55.231Z,59.90
2022-08-27T03:12:22.238Z,59.70
2022-08-27T03:14:51.396Z,60.70
2022-08-27T03:17:18.096Z,60.10
2022-08-27T03:19:44.797Z,59.30
2022-08-27T03:22:11.710Z,60.60
2022-08-27T03:24:38.618Z,61.40
2022-08-27T03:27:08.193Z,60.90
2022-08-27T03:29:36.425Z,61.30
2022-08-27T03:32:06.569Z,61.40
2022-08-27T03:34:33.643Z,60.80
2022-08-27T03:37:00.335Z,61.50
2022-08-27T03:39:27.155Z,62.60
2022-08-27T03:41:55.153Z,62.00
2022-08-27T03:44:24.375Z,60.70
2022-08-27T03:46:51.619Z,61.00
2022-08-27T03:49:20.243Z,61.90
2022-08-27T03:51:47.560Z,61.20
2022-08-27T03:54:15.074Z,61.60
2022-08-27T03:56:41.761Z,61.40
2022-08-27T03:59:08.574Z,62.00
2022-08-27T04:01:36.716Z,61.70
2022-08-27T04:04:04.191Z,62.20
2022-08-27T04:06:30.924Z,62.80
2022-08-27T04:08:57.658Z,63.30
2022-08-27T04:11:24.479Z,61.90
2022-08-27T04:13:51.382Z,63.20
2022-08-27T04:16:18.222Z,62.90
2022-08-27T04:18:46.360Z,63.50
2022-08-27T04:21:14.406Z,62.90
2022-08-27T04:23:42.065Z,63.10
2022-08-27T04:26:10.437Z,62.60
2022-08-27T04:28:38.784Z,61.90
2022-08-27T04:31:07.406Z,61.60
2022-08-27T04:33:40.716Z,61.20
2022-08-27T04:36:10.278Z,61.40
2022-08-27T04:38:37.737Z,61.10
2022-08-27T04:41:05.207Z,60.80
2022-08-27T04:43:31.867Z,60.80
2022-08-27T04:45:58.680Z,61.00
2022-08-27T04:48:25.653Z,61.20
2022-08-27T04:50:52.610Z,62.10
2022-08-27T04:53:20.621Z,62.60
2022-08-27T04:55:50.727Z,61.80
2022-08-27T04:58:18.342Z,62.60
2022-08-27T05:00:46.757Z,62.80
2022-08-27T05:03:13.495Z,62.70
2022-08-27T05:05:42.823Z,61.70
2022-08-27T05:08:11.276Z,63.20
2022-08-27T05:10:45.054Z,62.50
2022-08-27T05:13:12.340Z,62.10
2022-08-27T05:15:39.494Z,63.10
2022-08-27T05:18:08.387Z,63.60
2022-08-27T05:20:42.474Z,63.30
2022-08-27T05:23:09.232Z,63.60
2022-08-27T05:25:39.337Z,64.20
2022-08-27T05:28:07.858Z,64.70
2022-08-27T05:30:37.992Z,65.00
2022-08-27T05:33:04.997Z,65.60
2022-08-27T05:35:31.689Z,65.60
2022-08-27T05:37:58.569Z,65.10
2022-08-27T05:40:25.390Z,64.90
2022-08-27T05:42:52.203Z,64.60
2022-08-27T05:45:20.248Z,65.50
2022-08-27T05:47:46.948Z,64.20
2022-08-27T05:50:13.675Z,65.60
2022-08-27T05:52:40.379Z,65.80
2022-08-27T05:55:07.804Z,65.10
2022-08-27T05:57:34.760Z,66.30
2022-08-27T06:00:01.563Z,65.70
2022-08-27T06:02:29.711Z,64.80
2022-08-27T06:04:56.617Z,65.10
2022-08-27T06:07:23.397Z,64.60
2022-08-27T06:09:50.093Z,64.20
2022-08-27T06:12:16.822Z,65.30
2022-08-27T06:14:43.514Z,64.30
2022-08-27T06:17:10.379Z,65.00
2022-08-27T06:19:38.415Z,64.50
2022-08-27T06:22:10.158Z,63.70
2022-08-27T06:24:38.572Z,64.70
2022-08-27T06:27:05.862Z,64.10
2022-08-27T06:29:32.577Z,64.80
2022-08-27T06:31:59.270Z,65.00
2022-08-27T06:34:26.055Z,64.70
2022-08-27T06:36:54.067Z,65.30
2022-08-27T06:39:20.759Z,64.60
2022-08-27T06:41:48.446Z,64.80
2022-08-27T06:44:15.158Z,64.80
2022-08-27T06:46:42.581Z,65.10
2022-08-27T06:49:10.063Z,65.50
2022-08-27T06:51:39.152Z,66.00
2022-08-27T06:54:10.408Z,65.40
2022-08-27T06:56:37.171Z,65.10
2022-08-27T06:59:06.248Z,64.60
2022-08-27T07:01:41.375Z,64.70
2022-08-27T07:04:10.177Z,64.70
2022-08-27T07:06:38.215Z,65.10
2022-08-27T07:09:07.435Z,64.40
2022-08-27T07:11:34.595Z,64.90
2022-08-27T07:14:01.483Z,65.20
2022-08-27T07:16:30.222Z,65.10
2022-08-27T07:18:59.457Z,64.90
2022-08-27T07:21:30.750Z,64.90
2022-08-27T07:23:57.498Z,64.00
2022-08-27T07:26:25.991Z,63.70
2022-08-27T07:28:52.759Z,63.50
2022-08-27T07:31:22.098Z,63.40
2022-08-27T07:33:52.372Z,63.40
2022-08-27T07:36:20.382Z,62.60
2022-08-27T07:38:52.686Z,63.10
2022-08-27T07:41:31.096Z,63.50
2022-08-27T07:43:58.588Z,63.50
2022-08-27T07:46:26.519Z,63.10
2022-08-27T07:48:54.165Z,63.30
2022-08-27T07:51:22.487Z,63.30
2022-08-27T07:53:49.490Z,63.80
2022-08-27T07:56:16.706Z,63.90
2022-08-27T07:58:45.012Z,63.50
2022-08-27T08:01:12.402Z,63.30
2022-08-27T08:03:40.249Z,63.20
2022-08-27T08:06:12.168Z,63.30
2022-08-27T08:08:39.733Z,62.90
2022-08-27T08:11:06.824Z,62.70
2022-08-27T08:13:36.231Z,62.50
2022-08-27T08:16:05.166Z,62.40
2022-08-27T08:18:32.467Z,62.30
2022-08-27T08:21:00.482Z,62.50
2022-08-27T08:23:27.380Z,62.30
2022-08-27T08:25:54.163Z,61.90
2022-08-27T08:28:20.947Z,61.90
2022-08-27T08:30:47.955Z,61.60
2022-08-27T08:33:16.190Z,61.10
2022-08-27T08:35:43.026Z,60.80
2022-08-27T08:38:10.282Z,60.40
2022-08-27T08:40:40.483Z,60.20
2022-08-27T08:43:12.895Z,59.80
2022-08-27T08:45:42.262Z,60.30
2022-08-27T08:48:13.709Z,59.30
2022-08-27T08:50:51.015Z,59.10
2022-08-27T08:53:24.997Z,59.10
2022-08-27T08:55:55.443Z,59.70
2022-08-27T08:58:33.522Z,58.80
2022-08-27T09:01:03.629Z,58.40
2022-08-27T09:03:33.946Z,58.40
2022-08-27T09:06:07.136Z,58.30
2022-08-27T09:08:41.409Z,58.40
2022-08-27T09:11:18.259Z,57.90
2022-08-27T09:13:50.207Z,57.30
2022-08-27T09:16:17.374Z,57.20
2022-08-27T09:18:44.376Z,57.10
2022-08-27T09:21:29.292Z,57.10
2022-08-27T09:24:05.982Z,56.70
2022-08-27T09:26:37.110Z,56.60
2022-08-27T09:29:07.410Z,56.40
2022-08-27T09:31:38.194Z,56.40
2022-08-27T09:34:05.374Z,56.50
2022-08-27T09:36:34.212Z,56.40
2022-08-27T09:39:05.854Z,56.60
2022-08-27T09:41:42.048Z,56.80
2022-08-27T09:44:11.067Z,56.70
2022-08-27T09:46:37.831Z,57.00
2022-08-27T09:49:11.278Z,57.20
2022-08-27T09:51:41.918Z,57.10
2022-08-27T09:54:08.861Z,58.60
2022-08-27T09:56:37.930Z,58.20
2022-08-27T09:59:07.702Z,58.10
2022-08-27T10:01:36.996Z,58.20
2022-08-27T10:04:09.298Z,57.80
2022-08-27T10:06:36.268Z,57.80
2022-08-27T10:09:10.391Z,57.60
2022-08-27T10:11:41.075Z,57.60
2022-08-27T10:14:13.708Z,57.60
2022-08-27T10:16:50.943Z,57.50
2022-08-27T10:19:37.579Z,57.40
2022-08-27T10:22:16.676Z,57.50
2022-08-27T10:24:55.191Z,57.70
2022-08-27T10:27:31.064Z,57.80
2022-08-27T10:30:04.351Z,58.70
2022-08-27T10:32:46.241Z,58.10
2022-08-27T10:35:23.024Z,57.70
2022-08-27T10:38:04.762Z,58.00
2022-08-27T10:40:37.498Z,58.00
2022-08-27T10:43:17.090Z,57.90
2022-08-27T10:45:52.679Z,57.50
2022-08-27T10:48:28.279Z,57.50
2022-08-27T10:51:07.348Z,57.50
2022-08-27T10:53:41.676Z,57.60
2022-08-27T10:56:16.701Z,56.80
2022-08-27T10:58:57.498Z,56.30
2022-08-27T11:01:37.059Z,55.50
2022-08-27T11:04:09.712Z,55.40
2022-08-27T11:06:41.033Z,55.80
2022-08-27T11:09:14.700Z,55.40
2022-08-27T11:14:36.723Z,54.10
2022-08-27T11:17:08.677Z,54.30
2022-08-27T11:19:46.820Z,53.60
2022-08-27T11:22:17.177Z,53.20
2022-08-27T11:24:56.800Z,53.40
2022-08-27T11:27:28.948Z,52.50
2022-08-27T11:30:02.729Z,52.90
2022-08-27T11:32:37.656Z,52.20
2022-08-27T11:35:13.158Z,51.60
2022-08-27T11:38:11.284Z,51.80
2022-08-27T11:40:50.943Z,51.30
2022-08-27T11:43:22.637Z,51.40
2022-08-27T11:45:56.400Z,50.80
2022-08-27T11:48:25.142Z,51.00
2022-08-27T11:51:00.079Z,50.40
2022-08-27T11:53:29.724Z,49.90
2022-08-27T11:55:57.374Z,49.00
2022-08-27T11:58:29.047Z,50.00
2022-08-27T12:01:02.213Z,49.70
2022-08-27T12:03:33.570Z,50.10
2022-08-27T12:06:16.565Z,49.80
2022-08-27T12:08:43.362Z,50.20
2022-08-27T12:11:26.394Z,50.40
2022-08-27T12:14:00.677Z,49.40
2022-08-27T12:16:35.999Z,50.10
2022-08-27T12:19:29.637Z,50.50
2022-08-27T12:22:13.660Z,50.00
2022-08-27T12:24:50.302Z,49.90
2022-08-27T12:27:33.925Z,49.30
2022-08-27T12:30:23.378Z,50.10
2022-08-27T12:32:51.780Z,50.10
2022-08-27T12:35:21.073Z,49.70
2022-08-27T12:37:49.902Z,49.20
2022-08-27T12:40:24.378Z,48.90
2022-08-27T12:43:03.793Z,49.40
2022-08-27T12:45:31.822Z,49.00
2022-08-27T12:47:59.187Z,49.20
2022-08-27T12:50:28.842Z,48.80
2022-08-27T12:53:19.927Z,49.70
2022-08-27T12:56:02.755Z,49.10
2022-08-27T12:58:40.344Z,48.10
2022-08-27T13:01:24.633Z,48.10
2022-08-27T13:03:53.541Z,47.60
2022-08-27T13:06:22.983Z,47.00
2022-08-27T13:08:54.013Z,48.10
2022-08-27T13:11:23.048Z,47.60
2022-08-27T13:13:50.603Z,47.50
2022-08-27T13:16:20.915Z,47.40
2022-08-27T13:18:49.807Z,47.30
2022-08-27T13:21:23.077Z,47.30
2022-08-27T13:23:56.535Z,46.40
2022-08-27T13:26:25.919Z,46.50
2022-08-27T13:28:53.225Z,46.00
2022-08-27T13:31:23.660Z,46.50
2022-08-27T13:33:54.051Z,47.00
2022-08-27T13:36:28.717Z,47.60
2022-08-27T13:39:00.630Z,48.10
2022-08-27T13:41:31.874Z,48.30
2022-08-27T13:44:06.908Z,48.50
2022-08-27T13:46:46.200Z,48.40
2022-08-27T13:49:17.113Z,48.90
2022-08-27T13:51:44.147Z,49.00
2022-08-27T13:54:12.815Z,49.30
2022-08-27T13:56:54.642Z,49.20
2022-08-27T13:59:24.899Z,50.00
2022-08-27T14:01:57.102Z,50.00
2022-08-27T14:04:26.870Z,49.70
2022-08-27T14:06:54.180Z,50.10
2022-08-27T14:09:25.340Z,50.70
2022-08-27T14:11:59.793Z,51.00
2022-08-27T14:14:27.238Z,51.20
2022-08-27T14:16:59.754Z,51.50
2022-08-27T14:19:29.336Z,51.00
2022-08-27T14:22:02.912Z,51.20
2022-08-27T14:24:29.818Z,51.30
2022-08-27T14:27:07.730Z,51.50
2022-08-27T14:29:34.688Z,51.60
2022-08-27T14:32:03.284Z,51.90
2022-08-27T14:34:30.150Z,52.20
2022-08-27T14:36:56.954Z,52.30
2022-08-27T14:39:26.705Z,52.10
2022-08-27T14:41:54.500Z,53.00
2022-08-27T14:44:21.913Z,52.30
2022-08-27T14:46:49.078Z,52.40
2022-08-27T14:49:25.402Z,52.50
2022-08-27T14:51:52.381Z,52.40
2022-08-27T14:54:19.165Z,52.20
2022-08-27T14:56:46.115Z,52.10
2022-08-27T14:59:12.826Z,52.20
2022-08-27T15:01:39.692Z,52.30
2022-08-27T15:04:07.363Z,52.40
2022-08-27T15:06:35.658Z,52.40
2022-08-27T15:09:02.505Z,52.70
2022-08-27T15:11:32.418Z,52.50
2022-08-27T15:14:00.896Z,52.70
2022-08-27T15:16:30.160Z,53.00
2022-08-27T15:19:01.169Z,53.00
2022-08-27T15:21:30.064Z,53.20
2022-08-27T15:24:00.155Z,53.20
2022-08-27T15:26:27.353Z,54.00
2022-08-27T15:28:54.389Z,53.20
2022-08-27T15:31:21.285Z,53.20
2022-08-27T15:33:48.075Z,53.20
2022-08-27T15:36:15.163Z,53.20
2022-08-27T15:38:42.069Z,53.20
2022-08-27T15:41:11.493Z,53.40
2022-08-27T15:43:41.439Z,53.40
2022-08-27T15:46:08.475Z,53.50
2022-08-27T15:48:35.436Z,53.70
2022-08-27T15:51:06.146Z,53.80
2022-08-27T15:53:33.692Z,53.80
2022-08-27T15:56:00.556Z,54.00
2022-08-27T15:58:29.033Z,53.90
2022-08-27T16:01:02.494Z,53.50
2022-08-27T16:03:36.019Z,53.50
2022-08-27T16:06:05.182Z,53.40
2022-08-27T16:08:32.434Z,53.50
2022-08-27T16:11:04.100Z,53.50
2022-08-27T16:13:32.403Z,53.60
2022-08-27T16:16:00.360Z,53.70
2022-08-27T16:18:29.379Z,53.80
2022-08-27T16:20:58.234Z,53.70
2022-08-27T16:23:28.952Z,53.90
2022-08-27T16:25:56.617Z,53.80
2022-08-27T16:28:24.217Z,53.90
2022-08-27T16:30:54.471Z,53.90
2022-08-27T16:33:21.988Z,54.10
2022-08-27T16:35:48.827Z,54.20
2022-08-27T16:38:16.140Z,54.40
2022-08-27T16:40:46.898Z,54.40
2022-08-27T16:43:16.738Z,54.40
2022-08-27T16:45:43.689Z,54.40
2022-08-27T16:48:12.442Z,54.10
2022-08-27T16:50:41.052Z,54.50
2022-08-27T16:53:10.002Z,54.40
2022-08-27T16:55:37.335Z,54.60
2022-08-27T16:58:05.794Z,54.90
2022-08-27T17:00:32.787Z,55.00
2022-08-27T17:02:59.867Z,55.00
2022-08-27T17:05:34.325Z,54.90
2022-08-27T17:08:02.446Z,55.00
2022-08-27T17:10:34.029Z,54.90
2022-08-27T17:13:00.917Z,54.90
2022-08-27T17:15:28.027Z,54.90
2022-08-27T17:17:54.777Z,54.90
2022-08-27T17:20:21.577Z,54.70
2022-08-27T17:22:49.856Z,54.70
2022-08-27T17:25:16.652Z,54.50
2022-08-27T17:27:43.351Z,54.40
2022-08-27T17:30:11.263Z,54.20
2022-08-27T17:32:42.088Z,54.10
2022-08-27T17:35:09.852Z,54.20
2022-08-27T17:37:36.862Z,54.00
2022-08-27T17:40:07.591Z,54.40
2022-08-27T17:42:34.713Z,54.30
2022-08-27T17:45:01.593Z,54.50
2022-08-27T17:47:28.469Z,54.60
2022-08-27T17:49:55.614Z,54.60
2022-08-27T17:52:23.051Z,54.80
2022-08-27T17:54:51.918Z,55.00
2022-08-27T17:57:22.930Z,55.20
2022-08-27T17:59:51.349Z,55.30
2022-08-27T18:02:22.017Z,55.30
2022-08-27T18:04:50.029Z,55.40
2022-08-27T18:07:17.836Z,55.30
2022-08-27T18:09:44.868Z,55.40
2022-08-27T18:12:13.788Z,55.50
2022-08-27T18:14:42.283Z,55.30
2022-08-27T18:17:09.175Z,55.40
2022-08-27T18:19:45.410Z,54.90
2022-08-27T18:22:12.680Z,55.00
2022-08-27T18:24:39.637Z,54.80
2022-08-27T18:27:06.805Z,54.90
2022-08-27T18:29:33.734Z,54.70
2022-08-27T18:32:02.220Z,54.40
2022-08-27T18:34:29.085Z,54.60
2022-08-27T18:36:55.992Z,54.50
2022-08-27T18:39:25.899Z,54.30
2022-08-27T18:41:53.069Z,54.40
2022-08-27T18:44:19.946Z,54.60
2022-08-27T18:46:47.114Z,54.40
2022-08-27T18:49:15.584Z,54.80
2022-08-27T18:51:45.419Z,54.60
2022-08-27T18:54:13.877Z,54.50
2022-08-27T18:56:40.574Z,54.30
2022-08-27T18:59:07.339Z,54.50
2022-08-27T19:01:34.278Z,54.50
2022-08-27T19:04:02.510Z,54.80
2022-08-27T19:06:31.105Z,54.60
2022-08-27T19:08:57.959Z,54.50
2022-08-27T19:11:24.997Z,54.50
2022-08-27T19:13:51.911Z,54.40
2022-08-27T19:16:20.974Z,54.50
2022-08-27T19:18:48.023Z,54.40
2022-08-27T19:21:14.977Z,54.30
2022-08-27T19:23:43.221Z,54.40
2022-08-27T19:26:16.068Z,54.30
2022-08-27T19:28:43.200Z,54.10
2022-08-27T19:31:10.126Z,54.40
2022-08-27T19:33:36.954Z,54.30
2022-08-27T19:36:05.022Z,54.20
2022-08-27T19:38:32.404Z,54.40
2022-08-27T19:41:01.284Z,54.40
2022-08-27T19:43:28.312Z,54.30
2022-08-27T19:45:57.231Z,54.30
2022-08-27T19:48:24.658Z,54.30
2022-08-27T19:50:51.425Z,54.40
2022-08-27T19:53:18.149Z,54.50
2022-08-27T19:55:45.064Z,54.60
2022-08-27T19:58:13.824Z,54.40
2022-08-27T20:00:41.092Z,54.80
2022-08-27T20:03:08.274Z,54.90
2022-08-27T20:05:35.154Z,54.70
2022-08-27T20:08:02.446Z,54.80
2022-08-27T20:10:35.991Z,55.10
2022-08-27T20:13:03.847Z,55.20
2022-08-27T20:15:32.174Z,55.00
2022-08-27T20:17:59.301Z,55.00
2022-08-27T20:20:27.919Z,55.30
2022-08-27T20:22:55.163Z,55.10
2022-08-27T20:25:22.811Z,55.00
2022-08-27T20:27:50.102Z,55.00
2022-08-27T20:30:18.551Z,54.80
2022-08-27T20:32:46.665Z,54.70
2022-08-27T20:35:14.071Z,54.80
2022-08-27T20:37:42.356Z,54.70
2022-08-27T20:40:13.758Z,54.60
2022-08-27T20:42:40.548Z,54.60
2022-08-27T20:45:11.971Z,54.70
2022-08-27T20:47:39.882Z,54.60
2022-08-27T20:50:09.079Z,54.50
2022-08-27T20:52:38.738Z,54.50
2022-08-27T20:55:06.761Z,54.50
2022-08-27T20:57:33.554Z,54.60
2022-08-27T21:00:00.822Z,54.90
2022-08-27T21:02:28.783Z,54.90
2022-08-27T21:04:56.576Z,54.70
2022-08-27T21:07:24.866Z,55.00
2022-08-27T21:09:56.715Z,54.60
2022-08-27T21:12:24.933Z,54.70
2022-08-27T21:14:54.786Z,54.70
2022-08-27T21:17:23.854Z,54.80
2022-08-27T21:19:50.586Z,54.60
2022-08-27T21:22:17.310Z,54.60
2022-08-27T21:24:45.382Z,54.50
2022-08-27T21:27:12.076Z,54.60
2022-08-27T21:29:38.895Z,54.70
2022-08-27T21:32:06.056Z,54.50
2022-08-27T21:34:32.941Z,54.50
2022-08-27T21:36:59.810Z,55.10
2022-08-27T21:39:26.867Z,54.40
2022-08-27T21:41:56.506Z,54.30
2022-08-27T21:44:23.409Z,54.40
2022-08-27T21:46:50.423Z,54.20
2022-08-27T21:49:17.635Z,54.30
2022-08-27T21:51:44.585Z,54.40
2022-08-27T21:54:11.463Z,54.40
2022-08-27T21:56:38.652Z,54.10
2022-08-27T21:59:08.600Z,54.20
2022-08-27T22:01:35.828Z,54.50
2022-08-27T22:04:03.127Z,54.80
2022-08-27T22:06:30.020Z,54.90
2022-08-27T22:08:56.831Z,54.90
2022-08-27T22:11:24.281Z,55.40
2022-08-27T22:13:51.850Z,55.50
2022-08-27T22:16:20.822Z,55.90
2022-08-27T22:18:47.722Z,55.80
2022-08-27T22:21:21.284Z,56.30
2022-08-27T22:23:48.037Z,56.30
2022-08-27T22:26:14.965Z,56.50
2022-08-27T22:28:42.123Z,56.90
2022-08-27T22:31:09.024Z,56.40
2022-08-27T22:33:37.329Z,56.60
2022-08-27T22:36:04.464Z,56.40
2022-08-27T22:38:32.008Z,56.40
2022-08-27T22:40:59.352Z,56.40
2022-08-27T22:43:28.626Z,56.40
2022-08-27T22:45:55.675Z,56.40
2022-08-27T22:48:22.693Z,56.30
2022-08-27T22:50:52.632Z,56.00
2022-08-27T22:53:20.127Z,55.60
2022-08-27T22:55:50.246Z,55.30
2022-08-27T22:58:18.116Z,54.80
2022-08-27T23:00:51.926Z,54.30
2022-08-27T23:03:20.133Z,53.90
2022-08-27T23:05:47.819Z,53.90
2022-08-27T23:08:16.826Z,53.50
2022-08-27T23:10:44.597Z,53.60
2022-08-27T23:13:13.131Z,53.70
2022-08-27T23:15:41.595Z,54.10
2022-08-27T23:18:09.179Z,54.50
2022-08-27T23:20:37.454Z,54.60
2022-08-27T23:23:04.813Z,54.80
2022-08-27T23:25:34.833Z,55.00
2022-08-27T23:28:06.517Z,55.00
2022-08-27T23:30:34.967Z,55.10
2022-08-27T23:33:02.430Z,55.10
2022-08-27T23:35:29.466Z,55.10
2022-08-27T23:37:56.974Z,54.90
2022-08-27T23:40:24.155Z,55.00
2022-08-27T23:42:52.369Z,55.30
2022-08-27T23:45:21.858Z,54.60
2022-08-27T23:47:48.679Z,54.50
2022-08-27T23:50:16.193Z,54.30
2022-08-27T23:52:42.934Z,54.20
2022-08-27T23:55:10.668Z,54.30
2022-08-27T23:57:37.917Z,54.30
